Time;durP1;ratioP1;P1;durP2;ratioP2;P2;SDS_P1;SDS_P2;PMS_P1;PMS_P2;Temp;Humidity;BMP_temperature;BMP_pressure;BME280_temperature;BME280_humidity;BME280_pressure;Samples;Min_cycle;Max_cycle;Signal;HPM_P1;HPM_P2
2022/06/29 00:02:42;;;;;;;6.90;3.20;;;;;;;17.17;65.58;101407.44;6195912;23;20031;-87
2022/06/29 00:05:21;;;;;;;;;;;;;;;;;;;;;
2022/06/29 00:07:58;;;;;;;9.95;3.15;;;;;;;17.12;66.51;101413.66;6248755;23;20082;-87
2022/06/29 00:10:27;;;;;;;4.27;2.70;;;;;;;17.04;66.63;101402.25;6222065;23;20014;-87
2022/06/29 00:12:55;;;;;;;6.28;3.28;;;;;;;17.05;67.16;101409.41;6221596;23;20027;-87
2022/06/29 00:15:23;;;;;;;7.85;2.95;;;;;;;16.95;67.44;101397.16;6221493;23;20371;-87
2022/06/29 00:18:11;;;;;;;4.55;2.92;;;;;;;16.95;67.92;101399.91;6221348;23;20019;-87
2022/06/29 00:20:44;;;;;;;5.05;2.90;;;;;;;16.93;68.09;101391.13;6222461;23;20472;-87
2022/06/29 00:23:15;;;;;;;7.60;3.40;;;;;;;16.95;67.95;101401.84;6197672;23;20012;-87
2022/06/29 00:25:43;;;;;;;7.13;3.17;;;;;;;16.85;68.47;101380.50;6222479;23;20086;-87
2022/06/29 00:28:16;;;;;;;7.22;3.15;;;;;;;16.83;68.64;101379.91;6221346;23;20019;-87
2022/06/29 00:30:44;;;;;;;6.70;3.22;;;;;;;16.79;69.50;101381.47;6221746;23;20022;-87
2022/06/29 00:33:12;;;;;;;5.40;3.55;;;;;;;16.76;69.66;101387.44;6221253;23;20015;-86
2022/06/29 00:35:48;;;;;;;10.10;3.40;;;;;;;16.76;68.73;101396.50;6196315;23;20024;-86
2022/06/29 00:38:23;;;;;;;5.72;3.70;;;;;;;16.70;68.65;101388.41;6221389;23;20066;-86
2022/06/29 00:40:51;;;;;;;5.32;3.08;;;;;;;16.63;69.17;101380.34;6222183;23;20091;-86
2022/06/29 00:43:19;;;;;;;6.22;3.53;;;;;;;16.65;69.96;101389.13;6221725;23;20003;-87
2022/06/29 00:45:44;;;;;;;5.20;3.28;;;;;;;16.59;71.29;101390.94;6246319;23;20453;-87
2022/06/29 00:48:10;;;;;;;5.70;3.20;;;;;;;16.60;69.58;101387.13;6248225;23;20004;-86
2022/06/29 00:50:42;;;;;;;4.57;3.10;;;;;;;16.49;69.56;101379.78;6220736;23;20015;-87
2022/06/29 00:53:16;;;;;;;5.82;3.53;;;;;;;16.53;69.50;101386.44;6221692;23;20485;-87
2022/06/29 00:55:44;;;;;;;6.50;3.28;;;;;;;16.43;69.51;101369.78;6221922;23;20012;-86
2022/06/29 00:58:27;;;;;;;5.10;3.50;;;;;;;16.40;69.96;101368.38;6220400;23;20004;-87
2022/06/29 01:00:55;;;;;;;6.90;3.50;;;;;;;16.42;72.34;101381.84;6221445;23;20078;-86
2022/06/29 01:03:21;;;;;;;5.78;3.28;;;;;;;16.32;71.12;101366.00;6220672;23;20016;-86
2022/06/29 01:05:54;;;;;;;7.20;3.67;;;;;;;16.34;71.72;101368.50;6221825;23;20008;-87
2022/06/29 01:08:19;;;;;;;7.67;3.60;;;;;;;16.24;71.34;101363.63;6198105;23;20235;-86
2022/06/29 01:10:52;;;;;;;9.52;4.10;;;;;;;16.20;71.82;101367.94;6220656;23;20457;-87
2022/06/29 01:13:30;;;;;;;;;;;;;;;;;;;;;
2022/06/29 01:15:58;;;;;;;7.87;3.73;;;;;;;16.16;72.66;101366.75;6248185;23;20067;-88
2022/06/29 01:18:29;;;;;;;8.90;3.63;;;;;;;16.18;72.51;101370.06;6220925;23;20027;-87
2022/06/29 01:21:04;;;;;;;5.38;3.83;;;;;;;16.15;72.92;101376.88;6221199;23;20008;-87
2022/06/29 01:23:33;;;;;;;10.80;4.03;;;;;;;16.04;74.12;101364.84;6221282;23;20004;-87
2022/06/29 01:26:14;;;;;;;7.63;4.00;;;;;;;16.04;74.54;101370.31;6220380;23;20091;-87
2022/06/29 01:28:50;;;;;;;6.10;3.57;;;;;;;16.03;74.08;101370.56;6221158;23;20081;-87
2022/06/29 01:31:19;;;;;;;5.65;3.90;;;;;;;16.01;74.35;101365.31;6221715;23;20441;-87
2022/06/29 01:33:54;;;;;;;6.47;4.15;;;;;;;15.95;74.57;101358.91;6220578;23;20004;-87
2022/06/29 01:36:22;;;;;;;7.50;3.90;;;;;;;15.96;74.18;101357.84;6221140;23;20079;-87
2022/06/29 01:39:15;;;;;;;6.22;4.20;;;;;;;15.93;74.96;101358.31;6220209;23;20011;-87
2022/06/29 01:41:40;;;;;;;4.73;3.90;;;;;;;15.91;75.48;101354.97;6221296;23;20378;-87
2022/06/29 01:44:08;;;;;;;7.30;3.92;;;;;;;15.90;75.76;101357.94;6221411;23;20011;-87
2022/06/29 01:46:50;;;;;;;6.72;4.05;;;;;;;15.89;76.61;101356.31;6247296;23;20016;-87
2022/06/29 01:49:16;;;;;;;7.07;4.40;;;;;;;15.92;76.28;101358.56;6245873;23;20054;-87
2022/06/29 01:51:43;;;;;;;7.50;4.30;;;;;;;15.84;76.32;101348.81;6195587;23;20106;-87
2022/06/29 01:54:13;;;;;;;5.15;4.00;;;;;;;15.85;76.55;101350.47;6220667;23;20048;-87
2022/06/29 01:56:44;;;;;;;7.18;4.30;;;;;;;15.76;76.18;101340.91;6221027;23;20016;-87
2022/06/29 01:59:21;;;;;;;8.13;4.03;;;;;;;15.78;76.20;101360.69;6221065;23;20061;-87
2022/06/29 02:01:50;;;;;;;7.72;4.70;;;;;;;15.69;77.75;101343.75;6220918;23;20315;-87
2022/06/29 02:04:21;;;;;;;8.00;4.75;;;;;;;15.70;77.79;101344.63;6220284;23;20000;-87
2022/06/29 02:06:51;;;;;;;6.65;4.35;;;;;;;15.63;78.36;101336.50;6220748;23;20389;-87
2022/06/29 02:09:23;;;;;;;10.93;4.60;;;;;;;15.69;78.48;101354.69;6219969;23;20004;-87
2022/06/29 02:11:51;;;;;;;6.60;4.77;;;;;;;15.59;78.87;101344.38;6247440;23;20008;-87
2022/06/29 02:14:22;;;;;;;6.35;4.43;;;;;;;15.57;79.06;101334.72;6220014;23;20004;-87
2022/06/29 02:16:47;;;;;;;7.55;4.70;;;;;;;15.60;78.56;101342.47;6221350;23;20012;-87
2022/06/29 02:19:39;;;;;;;6.13;5.20;;;;;;;15.57;77.90;101343.75;6247354;23;20004;-87
2022/06/29 02:22:20;;;;;;;;;;;;;;;;;;;;;
2022/06/29 02:24:49;;;;;;;10.05;4.78;;;;;;;15.57;79.96;101340.19;6247953;23;20083;-87
2022/06/29 02:27:14;;;;;;;9.68;4.90;;;;;;;15.58;79.26;101337.22;6246678;23;20433;-87
2022/06/29 02:29:44;;;;;;;6.60;4.97;;;;;;;15.61;79.46;101334.00;6246922;23;20004;-87
2022/06/29 02:34:57;;;;;;;8.32;5.50;;;;;;;15.59;80.08;101341.63;6247743;23;20023;-87
2022/06/29 02:37:26;;;;;;;6.05;5.10;;;;;;;15.64;79.57;101342.84;6219997;23;20004;-87
2022/06/29 02:39:56;;;;;;;10.87;5.70;;;;;;;15.64;79.90;101343.66;6220278;23;20008;-87
2022/06/29 02:42:32;;;;;;;8.18;5.38;;;;;;;15.56;78.62;101325.69;6221299;23;20476;-87
2022/06/29 02:45:03;;;;;;;9.05;5.70;;;;;;;15.59;78.58;101335.34;6220358;23;20008;-88
2022/06/29 02:47:28;;;;;;;7.88;5.63;;;;;;;15.51;77.26;101324.75;6220965;23;20073;-87
2022/06/29 02:49:59;;;;;;;7.37;5.53;;;;;;;15.49;77.20;101321.44;6219830;23;20422;-87
2022/06/29 02:52:27;;;;;;;7.25;5.32;;;;;;;15.44;77.57;101322.09;6220561;23;20399;-87
2022/06/29 02:55:01;;;;;;;8.90;5.75;;;;;;;15.41;77.65;101317.13;6220112;23;20065;-87
2022/06/29 02:57:27;;;;;;;6.67;5.70;;;;;;;15.40;77.19;101327.22;6213288;23;20095;-87
2022/06/29 02:59:55;;;;;;;6.97;5.85;;;;;;;15.46;78.65;101328.19;6246677;23;20446;-87
2022/06/29 03:02:20;;;;;;;10.40;6.07;;;;;;;15.43;78.56;101312.25;6246579;23;20000;-87
2022/06/29 03:04:51;;;;;;;7.97;5.90;;;;;;;15.38;77.72;101306.66;6220009;23;20030;-87
2022/06/29 03:07:26;;;;;;;8.05;6.15;;;;;;;15.41;77.95;101317.13;6220233;23;20066;-87
2022/06/29 03:10:04;;;;;;;11.65;6.15;;;;;;;15.40;77.82;101304.53;6195251;23;20091;-87
2022/06/29 03:12:41;;;;;;;;;;;;;;;;;;;;;
2022/06/29 03:15:18;;;;;;;6.53;5.83;;;;;;;15.42;77.20;101302.38;6247547;23;20083;-87
2022/06/29 03:17:55;;;;;;;;;;;;;;;;;;;;;
2022/06/29 03:23:22;;;;;;;11.15;5.78;;;;;;;15.50;76.51;101304.78;6214120;23;20008;-87
2022/06/29 03:25:54;;;;;;;9.23;6.18;;;;;;;15.52;77.29;101305.38;6221244;23;20015;-87
2022/06/29 03:28:40;;;;;;;11.13;5.87;;;;;;;15.54;77.24;101305.94;6246457;23;20004;-87
2022/06/29 03:31:13;;;;;;;11.20;6.60;;;;;;;15.46;78.16;101298.13;6219491;23;20087;-87
2022/06/29 03:33:58;;;;;;;;;;;;;;;;;;;;;
2022/06/29 03:36:33;;;;;;;8.13;6.30;;;;;;;15.44;77.75;101292.03;6222844;23;20079;-87
2022/06/29 03:38:59;;;;;;;10.88;6.70;;;;;;;15.39;77.17;101281.00;6246826;23;20054;-87
2022/06/29 03:41:24;;;;;;;7.43;5.57;;;;;;;15.41;77.12;101279.69;6219355;23;20008;-87
2022/06/29 03:43:53;;;;;;;10.07;6.00;;;;;;;15.45;77.18;101288.22;6246281;23;20087;-87
2022/06/29 03:46:21;;;;;;;9.40;6.40;;;;;;;15.52;77.43;101297.16;6219674;23;20012;-87
2022/06/29 03:48:49;;;;;;;8.30;6.35;;;;;;;15.53;77.90;101292.50;6219980;23;20423;-88
2022/06/29 03:51:17;;;;;;;12.55;6.85;;;;;;;15.46;76.94;101281.72;6219366;23;20364;-87
2022/06/29 03:53:52;;;;;;;12.57;6.90;;;;;;;15.53;76.93;101287.91;6246170;23;20004;-87
2022/06/29 03:56:23;;;;;;;13.30;6.27;;;;;;;15.49;77.39;101278.50;6219675;23;20099;-87
2022/06/29 03:58:49;;;;;;;10.25;6.15;;;;;;;15.52;77.21;101277.19;6220039;23;20012;-87
2022/06/29 04:01:24;;;;;;;8.20;6.20;;;;;;;15.57;77.33;101283.59;6219303;23;20011;-87
2022/06/29 04:03:56;;;;;;;10.67;6.30;;;;;;;15.57;77.23;101271.81;6246970;23;20302;-87
2022/06/29 04:06:24;;;;;;;10.23;6.30;;;;;;;15.64;76.72;101272.53;6195642;23;20036;-87
2022/06/29 04:09:00;;;;;;;8.93;6.03;;;;;;;15.58;77.34;101263.38;6219451;23;20008;-87
2022/06/29 04:14:16;;;;;;;8.10;5.70;;;;;;;15.66;79.04;101267.66;6246243;23;20016;-87
2022/06/29 04:16:53;;;;;;;9.73;5.97;;;;;;;15.63;79.58;101273.59;6222594;23;20034;-87
2022/06/29 04:19:19;;;;;;;8.45;6.38;;;;;;;15.71;80.17;101284.19;6219729;23;20430;-87
2022/06/29 04:21:57;;;;;;;;;;;;;;;;;;;;;
2022/06/29 04:24:27;;;;;;;12.90;6.75;;;;;;;15.77;80.00;101272.28;6246706;23;20091;-87
2022/06/29 04:26:55;;;;;;;8.15;6.32;;;;;;;15.77;79.70;101272.28;6195303;23;20004;-87
2022/06/29 04:29:30;;;;;;;10.00;6.17;;;;;;;15.78;79.18;101264.94;6246395;23;20004;-87
2022/06/29 04:32:03;;;;;;;8.70;6.13;;;;;;;15.81;78.76;101266.38;6246384;23;20000;-87
2022/06/29 04:34:38;;;;;;;9.40;6.45;;;;;;;15.88;78.56;101270.63;6219730;23;20008;-87
2022/06/29 04:37:21;;;;;;;14.68;7.10;;;;;;;15.86;78.22;101258.28;6218276;23;20009;-87
2022/06/29 04:39:55;;;;;;;10.80;6.60;;;;;;;15.91;78.00;101264.66;6220116;23;20026;-86
2022/06/29 04:42:22;;;;;;;9.13;6.87;;;;;;;15.95;79.11;101260.38;6195486;23;20012;-87
2022/06/29 04:44:48;;;;;;;9.52;6.70;;;;;;;16.03;78.03;101266.56;6218999;23;20008;-87
2022/06/29 04:47:16;;;;;;;13.70;7.10;;;;;;;16.03;77.38;101267.38;6218840;23;20074;-87
2022/06/29 04:49:42;;;;;;;10.50;6.88;;;;;;;16.09;77.27;101265.59;6246156;23;20423;-87
2022/06/29 04:52:20;;;;;;;;;;;;;;;;;;;;;
2022/06/29 04:54:48;;;;;;;7.87;6.37;;;;;;;16.23;76.17;101268.91;6249283;23;20091;-87
2022/06/29 04:57:21;;;;;;;8.60;6.70;;;;;;;16.28;76.04;101266.25;6221834;23;20330;-87
2022/06/29 04:59:49;;;;;;;8.57;6.50;;;;;;;16.30;75.45;101266.84;6247756;23;20027;-87
2022/06/29 05:02:14;;;;;;;7.97;6.15;;;;;;;16.40;75.57;101272.53;6220986;23;20041;-87
2022/06/29 05:04:45;;;;;;;10.13;6.57;;;;;;;16.42;75.07;101273.09;6247722;23;20008;-87
2022/06/29 05:07:15;;;;;;;9.38;6.63;;;;;;;16.53;74.95;101274.13;6171806;23;20019;-87
2022/06/29 05:09:48;;;;;;;14.02;6.88;;;;;;;16.51;74.56;101254.38;6197030;23;20429;-87
2022/06/29 05:12:16;;;;;;;10.47;6.30;;;;;;;16.55;74.22;101251.97;6221192;23;20004;-87
2022/06/29 05:14:41;;;;;;;8.90;6.50;;;;;;;16.56;74.33;101246.25;6220625;23;20008;-87
2022/06/29 05:17:09;;;;;;;10.03;6.70;;;;;;;16.72;73.82;101262.97;6221066;23;20440;-90
2022/06/29 05:19:35;;;;;;;9.93;6.22;;;;;;;16.70;73.80;101251.41;6220021;23;20012;-89
2022/06/29 05:22:00;;;;;;;9.38;6.53;;;;;;;16.75;73.44;101240.56;6220987;23;20007;-89
2022/06/29 05:24:33;;;;;;;10.83;6.33;;;;;;;16.78;73.43;101240.88;6221356;23;20055;-89
2022/06/29 05:26:59;;;;;;;8.15;6.10;;;;;;;16.87;73.47;101248.72;6221081;23;20012;-90
2022/06/29 05:29:25;;;;;;;8.73;6.17;;;;;;;16.91;73.31;101245.25;6222059;23;20008;-91
2022/06/29 05:32:01;;;;;;;9.25;6.05;;;;;;;16.98;73.35;101242.34;6221891;23;20004;-88
2022/06/29 05:34:37;;;;;;;;;;;;;;;;;;;;;
2022/06/29 05:37:15;;;;;;;10.43;6.07;;;;;;;17.21;72.49;101251.50;6248837;23;20088;-89
2022/06/29 05:39:45;;;;;;;8.75;5.45;;;;;;;17.20;72.96;101242.44;6197158;23;20011;-88
2022/06/29 05:42:29;;;;;;;7.45;5.47;;;;;;;17.33;71.85;101246.72;6196436;23;20008;-89
2022/06/29 05:44:55;;;;;;;9.57;5.72;;;;;;;17.42;71.59;101247.13;6221671;23;20011;-89
2022/06/29 05:47:21;;;;;;;12.02;5.90;;;;;;;17.43;71.56;101240.56;6220481;23;20000;-88
2022/06/29 05:49:49;;;;;;;9.70;5.53;;;;;;;17.49;70.61;101236.81;6220855;23;20008;-89
2022/06/29 05:52:20;;;;;;;8.85;5.70;;;;;;;17.61;70.60;101244.94;6194709;23;20031;-90
2022/06/29 05:54:45;;;;;;;8.90;5.25;;;;;;;17.64;70.82;101237.06;6220714;23;20403;-89
2022/06/29 05:57:11;;;;;;;13.47;6.00;;;;;;;17.74;70.15;101241.00;6220214;23;20008;-89
2022/06/29 05:59:59;;;;;;;10.40;5.40;;;;;;;17.78;69.76;101233.94;6220611;23;20307;-89
2022/06/29 06:02:45;;;;;;;11.55;6.03;;;;;;;17.83;69.36;101234.00;6220176;23;20058;-89
2022/06/29 06:05:23;;;;;;;;;;;;;;;;;;;;;
2022/06/29 06:08:09;;;;;;;;;;;;;;;;;;;;;
2022/06/29 06:10:40;;;;;;;13.13;5.25;;;;;;;18.05;69.29;101239.50;6223231;23;20470;-89
2022/06/29 06:13:23;;;;;;;;;;;;;;;;;;;;;
2022/06/29 06:16:02;;;;;;;13.57;4.60;;;;;;;18.26;68.74;101248.81;6223877;23;20152;-89
2022/06/29 06:18:37;;;;;;;9.13;5.18;;;;;;;18.28;67.54;101238.41;6196543;23;20066;-89
2022/06/29 06:23:54;;;;;;;10.32;4.55;;;;;;;18.49;67.91;101247.69;6247653;23;20074;-89
2022/06/29 06:26:28;;;;;;;7.47;4.30;;;;;;;18.58;66.93;101253.56;6219413;23;20005;-89
2022/06/29 06:29:05;;;;;;;10.25;4.22;;;;;;;18.67;66.56;101246.50;6220270;23;20046;-89
2022/06/29 06:31:46;;;;;;;8.85;3.60;;;;;;;18.72;65.55;101240.22;6221431;23;20070;-89
2022/06/29 06:34:41;;;;;;;5.68;3.60;;;;;;;18.76;65.81;101236.72;6219597;23;20005;-89
2022/06/29 06:37:17;;;;;;;6.20;3.42;;;;;;;18.86;64.02;101241.47;6220653;23;20004;-89
2022/06/29 06:42:45;;;;;;;7.13;3.00;;;;;;;19.11;63.10;101240.03;6247211;23;20150;-89
2022/06/29 06:45:13;;;;;;;7.85;2.58;;;;;;;19.24;61.85;101234.09;6171890;23;20012;-89
2022/06/29 06:47:51;;;;;;;;;;;;;;;;;;;;;
2022/06/29 06:50:36;;;;;;;4.18;2.58;;;;;;;19.41;59.46;101233.09;6247574;23;20087;-89
2022/06/29 06:53:20;;;;;;;7.00;2.70;;;;;;;19.48;59.35;101236.44;6189615;23;20016;-89
2022/06/29 06:56:19;;;;;;;;;;;;;;;;;;;;;
2022/06/29 06:59:10;;;;;;;;;;;;;;;;;;;;;
2022/06/29 07:01:59;;;;;;;5.03;2.60;;;;;;;19.72;59.19;101250.59;6171163;23;20088;-90
2022/06/29 07:04:35;;;;;;;;;;;;;;;;;;;;;
2022/06/29 07:07:23;;;;;;;4.80;2.70;;;;;;;19.87;59.01;101238.03;6216805;23;20091;-89
2022/06/29 07:10:19;;;;;;;6.43;2.72;;;;;;;19.95;58.13;101237.53;6179639;23;20005;-89
2022/06/29 07:12:53;;;;;;;3.70;2.50;;;;;;;20.06;57.64;101239.22;6189361;23;20012;-89
2022/06/29 07:15:25;;;;;;;16.42;9.25;;;;;;;20.11;57.19;101230.16;6189179;23;20047;-89
2022/06/29 07:18:04;;;;;;;8.40;3.30;;;;;;;20.23;57.06;101247.28;6190209;23;20033;-89
2022/06/29 07:20:41;;;;;;;6.77;2.50;;;;;;;20.23;56.72;101233.50;6166480;23;20031;-89
2022/06/29 07:23:41;;;;;;;7.03;2.53;;;;;;;20.29;56.70;101239.88;6142964;23;20009;-90
2022/06/29 07:26:10;;;;;;;6.03;2.40;;;;;;;20.39;55.97;101241.78;6189021;23;20019;-89
2022/06/29 07:35:26;;;;;;;3.73;2.40;;;;;;;20.66;53.79;101223.13;6164417;23;20063;-90
2022/06/29 07:38:10;;;;;;;3.20;1.88;;;;;;;20.74;53.76;101226.47;6189256;23;20015;-90
2022/06/29 07:40:38;;;;;;;5.30;2.10;;;;;;;20.80;53.86;101222.59;6189825;23;20447;-91
2022/06/29 07:43:09;;;;;;;4.15;2.33;;;;;;;20.86;53.86;101221.53;6214743;23;20008;-90
2022/06/29 07:45:43;;;;;;;4.75;2.10;;;;;;;20.95;53.32;101222.59;6189307;23;20013;-89
2022/06/29 07:48:12;;;;;;;5.57;2.10;;;;;;;21.09;53.15;101227.56;6189872;23;20011;-89
2022/06/29 07:50:40;;;;;;;3.40;1.67;;;;;;;21.13;52.73;101217.63;6192049;23;20011;-90
2022/06/29 07:53:08;;;;;;;3.40;2.00;;;;;;;21.22;53.63;101218.72;6245787;23;20093;-90
2022/06/29 07:55:36;;;;;;;3.33;1.75;;;;;;;21.28;52.04;101216.78;6246130;23;20019;-90
2022/06/29 07:58:09;;;;;;;4.57;2.00;;;;;;;21.33;51.85;101209.34;6219409;23;20087;-89
2022/06/29 08:01:09;;;;;;;2.20;1.80;;;;;;;21.46;52.51;101223.63;6246071;23;20092;-89
2022/06/29 08:07:17;;;;;;;;;;;;;;;;;;;;;
2022/06/29 08:10:21;;;;;;;;;;;;;;;;;;;;;
2022/06/29 08:17:01;;;;;;;3.03;1.80;;;;;;;21.93;50.88;101211.34;6174890;23;20446;-92
2022/06/29 08:19:45;;;;;;;;;;;;;;;;;;;;;
2022/06/29 08:22:26;;;;;;;;;;;;;;;;;;;;;
2022/06/29 08:25:31;;;;;;;3.15;1.70;;;;;;;22.28;50.41;101206.75;6222994;23;20092;-92
2022/06/29 08:31:46;;;;;;;;;;;;;;;;;;;;;
2022/06/29 08:34:40;;;;;;;;;;;;;;;;;;;;;
2022/06/29 08:37:57;;;;;;;;;;;;;;;;;;;;;
2022/06/29 08:41:17;;;;;;;;;;;;;;;;;;;;;
2022/06/29 08:47:37;;;;;;;4.13;1.50;;;;;;;23.27;46.98;101196.59;6071893;23;20069;-92
2022/06/29 08:53:57;;;;;;;5.45;1.50;;;;;;;23.76;47.19;101200.22;6153078;23;20027;-92
2022/06/29 08:56:56;;;;;;;;;;;;;;;;;;;;;
2022/06/29 08:59:55;;;;;;;;;;;;;;;;;;;;;
2022/06/29 09:02:46;;;;;;;;;;;;;;;;;;;;;
2022/06/29 09:06:17;;;;;;;2.17;1.63;;;;;;;24.93;45.12;101190.47;6195673;23;20087;-92
2022/06/29 09:13:08;;;;;;;;;;;;;;;;;;;;;
2022/06/29 09:19:29;;;;;;;;;;;;;;;;;;;;;
2022/06/29 09:22:28;;;;;;;3.28;1.77;;;;;;;24.40;41.15;101194.38;5989051;23;20098;-92
2022/06/29 09:25:39;;;;;;;2.83;1.50;;;;;;;24.43;41.16;101189.03;6016275;23;20011;-92
2022/06/29 09:28:28;;;;;;;2.75;1.60;;;;;;;24.48;41.33;101193.69;6125973;23;20018;-92
2022/06/29 09:31:00;;;;;;;2.72;1.80;;;;;;;24.59;39.98;101195.19;6126406;23;20465;-92
2022/06/29 09:33:33;;;;;;;3.43;1.70;;;;;;;24.67;40.21;101191.75;6183839;23;20012;-92
2022/06/29 09:36:18;;;;;;;4.43;1.75;;;;;;;24.81;39.94;101194.56;6220426;23;20057;-92
2022/06/29 09:39:15;;;;;;;;;;;;;;;;;;;;;
2022/06/29 09:45:05;;;;;;;3.13;1.67;;;;;;;25.14;39.75;101177.06;6213971;23;20015;-92
2022/06/29 09:47:54;;;;;;;4.40;1.60;;;;;;;25.31;40.24;101179.28;6225285;23;20016;-92
2022/06/29 09:57:44;;;;;;;3.85;1.48;;;;;;;25.78;38.52;101176.34;6108635;23;20070;-86
2022/06/29 10:02:55;;;;;;;2.53;1.50;;;;;;;26.18;36.51;101180.22;6095913;23;20319;-86
2022/06/29 10:05:54;;;;;;;3.15;1.75;;;;;;;26.22;35.82;101172.91;6071742;23;20062;-86
2022/06/29 10:08:17;;;;;;;3.17;1.88;;;;;;;26.65;36.26;101173.56;6095084;23;20010;-86
2022/06/29 10:10:54;;;;;;;1.92;1.50;;;;;;;26.88;35.53;101175.22;6151337;23;20020;-86
2022/06/29 10:13:43;;;;;;;3.90;1.80;;;;;;;27.40;34.59;101179.44;6190322;23;20023;-86
2022/06/29 10:16:59;;;;;;;2.80;1.40;;;;;;;28.13;35.83;101190.13;6189934;23;20454;-86
2022/06/29 10:19:32;;;;;;;4.63;1.50;;;;;;;28.97;32.85;101175.97;6183436;23;20012;-87
2022/06/29 10:22:01;;;;;;;3.13;1.95;;;;;;;29.11;31.82;101173.78;6189860;23;20004;-86
2022/06/29 10:28:08;;;;;;;4.45;1.77;;;;;;;28.84;33.83;101170.25;6216594;23;20004;-86
2022/06/29 10:30:37;;;;;;;4.60;1.70;;;;;;;28.71;32.14;101162.88;6190834;23;20008;-86
2022/06/29 10:33:30;;;;;;;3.15;1.60;;;;;;;29.18;33.18;101162.91;6216802;23;20012;-86
2022/06/29 10:36:17;;;;;;;2.15;1.73;;;;;;;30.05;31.91;101161.63;6189993;23;20000;-87
2022/06/29 10:39:05;;;;;;;4.95;1.85;;;;;;;30.61;29.99;101149.31;6189745;23;20019;-86
2022/06/29 10:45:03;;;;;;;1.87;1.63;;;;;;;31.50;30.34;101147.94;6216850;23;20020;-87
2022/06/29 10:47:37;;;;;;;5.38;1.80;;;;;;;30.92;27.18;101148.81;6189432;23;20000;-86
2022/06/29 10:50:40;;;;;;;5.93;1.95;;;;;;;30.07;29.57;101127.72;6192540;23;20013;-87
2022/06/29 10:53:11;;;;;;;9.07;1.90;;;;;;;30.01;29.80;101134.69;6216238;23;20009;-89
2022/06/29 10:56:13;;;;;;;3.45;1.70;;;;;;;30.60;29.29;101125.28;6189723;23;20005;-87
2022/06/29 10:58:56;;;;;;;;;;;;;;;;;;;;;
2022/06/29 11:01:28;;;;;;;3.80;1.88;;;;;;;31.06;28.74;101126.09;6222407;23;21931;-87
2022/06/29 11:04:19;;;;;;;2.08;1.88;;;;;;;31.21;28.73;101127.41;6195951;23;20015;-87
2022/06/29 11:13:01;;;;;;;2.40;2.00;;;;;;;31.35;29.21;101129.03;6212155;23;20008;-88
2022/06/29 11:15:44;;;;;;;3.20;2.00;;;;;;;31.76;28.83;101127.97;6220303;23;20054;-92
2022/06/29 11:18:13;;;;;;;2.88;2.00;;;;;;;32.24;27.78;101124.56;6221451;23;20079;-88
2022/06/29 11:20:49;;;;;;;4.05;1.80;;;;;;;32.69;26.81;101118.63;6194297;23;20039;-88
2022/06/29 11:23:40;;;;;;;8.65;2.08;;;;;;;33.15;28.13;101123.00;6246010;23;20011;-88
2022/06/29 11:26:18;;;;;;;;;;;;;;;;;;;;;
2022/06/29 11:28:52;;;;;;;2.88;2.08;;;;;;;35.20;24.39;101120.81;6246921;23;20088;-87
2022/06/29 11:31:22;;;;;;;3.92;2.20;;;;;;;34.73;24.69;101108.75;6219412;23;20012;-89
2022/06/29 11:34:10;;;;;;;4.53;2.80;;;;;;;37.11;24.26;101114.72;6220076;23;20007;-88
2022/06/29 11:36:50;;;;;;;3.60;2.20;;;;;;;39.77;20.23;101104.06;6195204;23;20035;-88
2022/06/29 11:39:23;;;;;;;3.00;2.53;;;;;;;41.40;17.34;101103.00;6218287;23;20004;-88
2022/06/29 11:45:15;;;;;;;6.63;2.65;;;;;;;42.99;18.67;101095.91;6224080;23;20051;-88
2022/06/29 11:48:17;;;;;;;2.90;2.70;;;;;;;41.52;18.44;101100.41;6196132;23;20004;-88
2022/06/29 11:51:10;;;;;;;4.25;3.03;;;;;;;40.57;18.88;101083.78;6245940;23;20004;-88
2022/06/29 11:53:54;;;;;;;2.93;2.70;;;;;;;39.22;19.73;101088.38;6219054;23;20062;-88
2022/06/29 11:56:29;;;;;;;3.80;3.10;;;;;;;38.00;19.93;101082.50;6219688;23;20012;-88
2022/06/29 11:59:18;;;;;;;4.68;2.80;;;;;;;37.77;21.13;101075.16;6220014;23;20418;-88
2022/06/29 12:01:59;;;;;;;6.75;2.92;;;;;;;37.29;21.64;101070.41;6219552;23;20014;-89
2022/06/29 12:04:49;;;;;;;;;;;;;;;;;;;;;
2022/06/29 12:07:35;;;;;;;;;;;;;;;;;;;;;
2022/06/29 12:10:07;;;;;;;4.88;2.70;;;;;;;42.38;16.40;101074.91;6222790;23;20095;-87
2022/06/29 12:12:39;;;;;;;3.42;2.80;;;;;;;41.55;17.16;101064.59;6170656;23;20019;-87
2022/06/29 12:15:19;;;;;;;5.60;2.50;;;;;;;43.13;15.99;101060.63;6220211;23;20016;-87
2022/06/29 12:18:01;;;;;;;;;;;;;;;;;;;;;
2022/06/29 12:20:32;;;;;;;4.80;3.00;;;;;;;47.76;13.03;101060.19;6246384;23;20079;-87
2022/06/29 12:23:18;;;;;;;;;;;;;;;;;;;;;
2022/06/29 12:25:49;;;;;;;5.40;4.07;;;;;;;49.36;11.23;101049.41;6246242;23;20367;-87
2022/06/29 12:28:28;;;;;;;5.70;4.30;;;;;;;47.48;12.69;101041.19;6219593;23;20488;-88
2022/06/29 12:30:57;;;;;;;6.93;3.58;;;;;;;43.48;14.37;101036.28;6196576;23;20047;-87
2022/06/29 12:33:53;;;;;;;5.87;3.90;;;;;;;44.05;16.11;101042.81;6220156;23;20020;-87
2022/06/29 12:36:21;;;;;;;5.68;3.78;;;;;;;46.13;13.23;101031.88;6225519;23;20027;-87
2022/06/29 12:38:50;;;;;;;5.28;3.70;;;;;;;47.47;12.84;101037.50;6245163;23;20008;-87
2022/06/29 12:41:54;;;;;;;4.80;3.80;;;;;;;47.90;13.07;101041.59;6219821;23;20008;-87
2022/06/29 12:44:52;;;;;;;5.35;4.32;;;;;;;47.48;12.87;101036.22;6220034;23;20358;-87
2022/06/29 12:47:22;;;;;;;5.17;3.90;;;;;;;49.14;11.88;101033.06;6215022;23;20012;-87
2022/06/29 12:50:11;;;;;;;4.72;4.30;;;;;;;50.12;10.89;101031.41;6246659;23;20008;-87
2022/06/29 12:52:52;;;;;;;;;;;;;;;;;;;;;
2022/06/29 12:55:48;;;;;;;4.97;4.47;;;;;;;44.88;13.88;101037.94;6245602;23;20096;-88
2022/06/29 12:58:37;;;;;;;5.80;4.47;;;;;;;41.40;16.19;101029.81;6197609;23;20342;-88
2022/06/29 13:01:08;;;;;;;4.43;3.47;;;;;;;39.62;17.47;101034.38;6170855;23;20454;-87
2022/06/29 13:03:40;;;;;;;5.28;3.25;;;;;;;38.64;19.38;101036.53;6218630;23;20016;-87
2022/06/29 13:12:46;;;;;;;3.67;3.10;;;;;;;36.35;21.65;101034.91;6154582;22;20364;-87
2022/06/29 13:15:19;;;;;;;4.87;3.37;;;;;;;35.95;22.10;101033.63;6221480;23;20008;-87
2022/06/29 13:17:56;;;;;;;5.70;3.03;;;;;;;38.76;20.45;101030.47;6196630;23;20012;-87
2022/06/29 13:20:32;;;;;;;;;;;;;;;;;;;;;
2022/06/29 13:23:33;;;;;;;;;;;;;;;;;;;;;
2022/06/29 13:26:07;;;;;;;5.03;3.50;;;;;;;47.71;12.00;101019.75;6247084;23;20075;-87
2022/06/29 13:28:42;;;;;;;5.03;3.83;;;;;;;48.72;11.19;101025.03;6220855;23;20008;-87
2022/06/29 13:31:18;;;;;;;6.80;3.60;;;;;;;48.00;11.81;101025.19;6220508;23;20433;-87
2022/06/29 13:34:11;;;;;;;4.43;4.03;;;;;;;49.71;11.87;101022.25;6220103;23;20012;-87
2022/06/29 13:36:57;;;;;;;5.50;5.00;;;;;;;51.35;9.94;101017.97;6220848;23;20083;-87
2022/06/29 13:39:40;;;;;;;;;;;;;;;;;;;;;
2022/06/29 13:42:17;;;;;;;5.77;5.37;;;;;;;54.04;7.95;101016.53;6223340;23;20075;-88
2022/06/29 13:44:57;;;;;;;6.45;5.95;;;;;;;54.05;8.16;101011.53;6197970;23;20012;-88
2022/06/29 13:47:35;;;;;;;7.15;5.45;;;;;;;54.76;7.64;101002.09;6220526;23;20326;-88
2022/06/29 13:50:13;;;;;;;6.15;5.55;;;;;;;54.74;8.65;101011.34;6220814;23;20000;-88
2022/06/29 13:53:01;;;;;;;7.38;6.75;;;;;;;53.66;8.90;100998.31;6220455;23;20135;-87
2022/06/29 13:55:31;;;;;;;6.57;6.07;;;;;;;52.70;8.66;100998.19;6220482;23;20012;-88
2022/06/29 13:57:59;;;;;;;6.63;6.07;;;;;;;51.95;8.86;100999.78;6195336;23;20043;-88
2022/06/29 14:00:28;;;;;;;6.90;6.40;;;;;;;50.86;9.13;100994.16;6219620;23;20022;-87
2022/06/29 14:02:58;;;;;;;6.40;5.90;;;;;;;51.68;9.13;100987.25;6219141;23;20008;-88
2022/06/29 14:05:33;;;;;;;6.30;5.80;;;;;;;51.92;8.63;100982.09;6195391;23;20004;-87
2022/06/29 14:08:15;;;;;;;;;;;;;;;;;;;;;
2022/06/29 14:10:51;;;;;;;6.50;5.90;;;;;;;52.40;9.73;100983.06;6248074;23;20458;-88
2022/06/29 14:13:20;;;;;;;6.78;6.18;;;;;;;52.16;8.73;100969.56;6220017;23;20000;-88
2022/06/29 14:16:02;;;;;;;6.82;6.22;;;;;;;51.61;9.65;100978.97;6246518;23;20000;-88
2022/06/29 14:18:31;;;;;;;7.22;6.50;;;;;;;52.52;8.38;100973.22;6196245;23;20043;-88
2022/06/29 14:21:14;;;;;;;;;;;;;;;;;;;;;
2022/06/29 14:23:51;;;;;;;8.80;6.18;;;;;;;51.83;9.30;100969.88;6221492;23;20075;-88
2022/06/29 14:26:22;;;;;;;6.25;5.72;;;;;;;51.57;8.91;100971.28;6219733;23;20042;-88
2022/06/29 14:29:13;;;;;;;6.90;6.40;;;;;;;52.35;9.84;100972.22;6220023;23;20338;-87
2022/06/29 14:31:57;;;;;;;7.00;6.50;;;;;;;53.09;8.16;100965.16;6247211;23;20034;-88